Ana Sayfa
METAR-TAF:

METAR-TAF

Havaalanları :

Lismore, Avustralya

Enlem: 28-49-41S, Boylam: 153-15-36E, yükseklik: 11 m

Güncel hava durumu gözlemi

Rapor saat 22:00 UTC de 23 dakika önce yapıldı.
Rüzgar batıdan 4 kt
Sıcaklık 13°C
Nem 58%
Basınç 1011 hPa
Görüş mesafesi 10 km veya daha fazla
9100 ft yükseklikte çok bulutlu

METAR: YLIS 092200Z AUTO 28004KT 9999 // OVC091 13/05 Q1011

Saat: 08:23 (22:23 UTC)


TAF: eksik

4.000'den fazla havaalanı için hava durumu gözlemleri ve tahminleri (METAR ve TAF raporları).

Kullanılabilir istasyonlar harita üzerinde sarı ve kırmızı noktalarla gösterilir.

İstasyonun adını görmek için fareyi noktanın üzerinde gezdirin.

Sonrasında hava gözlem ve tahminlerini görmek için tıklayın.

Haritayı değiştirmek için: yaklaştırmak için siyah artı işaretli yeşil düğmeye ve uzaklaştırmak için de eksi işaretli düğmeye hızla tıklayın; bitişik haritalar için yeşil okları kullanın.


METAR-TAF: